Time;durP1;ratioP1;P1;durP2;ratioP2;P2;SDS_P1;SDS_P2;PMS_P1;PMS_P2;Temp;Humidity;BMP_temperature;BMP_pressure;BME280_temperature;BME280_humidity;BME280_pressure;Samples;Min_cycle;Max_cycle;Signal;HPM_P1;HPM_P2
2023/07/13 00:01:49;;;;;;;7.05;2.13;;;15.60;99.90;;;;;;4973812;28;20696;-74
2023/07/13 00:04:17;;;;;;;8.02;2.13;;;15.60;99.90;;;;;;4973896;28;20176;-79
2023/07/13 00:06:44;;;;;;;10.88;2.65;;;15.50;99.90;;;;;;4973681;28;20180;-79
2023/07/13 00:09:12;;;;;;;10.02;2.63;;;15.50;99.90;;;;;;4974058;28;20180;-79
2023/07/13 00:11:38;;;;;;;14.38;2.30;;;15.60;99.90;;;;;;4973755;28;20176;-77
2023/07/13 00:14:04;;;;;;;8.55;2.55;;;15.50;99.90;;;;;;4973465;28;20176;-71
2023/07/13 00:16:29;;;;;;;12.80;2.78;;;15.50;99.90;;;;;;4973177;28;20601;-76
2023/07/13 00:18:55;;;;;;;11.25;2.50;;;;;;;;;;4972190;28;20179;-74
2023/07/13 00:21:21;;;;;;;12.40;2.80;;;15.50;99.90;;;;;;4973270;28;20180;-75
2023/07/13 00:23:46;;;;;;;7.95;2.30;;;15.50;99.90;;;;;;4972797;28;20171;-76
2023/07/13 00:26:13;;;;;;;9.05;2.53;;;15.40;99.90;;;;;;4973424;28;20184;-72
2023/07/13 00:28:39;;;;;;;10.23;2.50;;;15.50;99.90;;;;;;4971979;28;20199;-73
2023/07/13 00:31:05;;;;;;;11.77;2.42;;;15.40;99.90;;;;;;4973198;28;20230;-74
2023/07/13 00:33:33;;;;;;;9.30;2.75;;;15.40;99.90;;;;;;4959734;28;20595;-75
2023/07/13 00:35:58;;;;;;;6.72;2.13;;;15.40;99.90;;;;;;4972913;28;20255;-74
2023/07/13 00:38:24;;;;;;;11.63;2.83;;;15.30;99.90;;;;;;4965699;28;20200;-73
2023/07/13 00:40:50;;;;;;;10.80;3.15;;;15.30;99.90;;;;;;4953918;28;20177;-78
2023/07/13 00:43:41;;;;;;;9.57;2.40;;;15.20;99.90;;;;;;4954002;28;20235;-76
2023/07/13 00:46:29;;;;;;;7.30;2.60;;;15.30;99.90;;;;;;4953413;28;20184;-73
2023/07/13 00:48:59;;;;;;;12.00;2.75;;;15.30;99.90;;;;;;4953602;28;20165;-73
2023/07/13 00:51:32;;;;;;;7.22;2.55;;;15.30;99.90;;;;;;4967266;28;20184;-74
2023/07/13 00:54:00;;;;;;;14.05;2.60;;;15.30;99.90;;;;;;4973096;28;20188;-73
2023/07/13 00:56:28;;;;;;;9.73;2.80;;;15.30;99.90;;;;;;4972399;28;20215;-72
2023/07/13 00:58:54;;;;;;;8.48;2.60;;;15.20;99.90;;;;;;4972823;28;20655;-72
2023/07/13 01:01:20;;;;;;;9.32;2.33;;;15.30;99.90;;;;;;4972768;28;20175;-73
2023/07/13 01:03:46;;;;;;;13.35;2.92;;;15.20;99.90;;;;;;4972768;28;20599;-70
2023/07/13 01:06:12;;;;;;;9.88;2.70;;;15.30;99.90;;;;;;4972544;28;20171;-70
2023/07/13 01:08:39;;;;;;;8.20;2.75;;;15.30;99.90;;;;;;4972510;28;20168;-70
2023/07/13 01:11:07;;;;;;;9.45;2.92;;;15.30;99.90;;;;;;4972475;28;20176;-70
2023/07/13 01:13:34;;;;;;;8.80;2.30;;;;;;;;;;4972434;28;20191;-72
2023/07/13 01:16:09;;;;;;;14.15;2.80;;;15.30;99.90;;;;;;4972762;28;20219;-71
2023/07/13 01:18:34;;;;;;;5.95;2.33;;;15.20;99.90;;;;;;4972194;28;20650;-71
2023/07/13 01:21:04;;;;;;;14.63;3.38;;;15.20;99.90;;;;;;4972650;28;20187;-72
2023/07/13 01:23:31;;;;;;;11.10;3.53;;;15.20;99.90;;;;;;4978548;28;20183;-73
2023/07/13 01:25:57;;;;;;;11.45;2.92;;;15.10;99.90;;;;;;4980052;28;20172;-71
2023/07/13 01:28:26;;;;;;;14.15;2.90;;;15.10;99.90;;;;;;4978458;28;20294;-72
2023/07/13 01:30:54;;;;;;;6.40;2.72;;;15.10;99.90;;;;;;4972319;28;20176;-72
2023/07/13 01:33:19;;;;;;;8.05;2.55;;;15.20;99.90;;;;;;4971979;28;20628;-74
2023/07/13 01:35:46;;;;;;;11.18;2.95;;;15.20;99.90;;;;;;4972018;28;20208;-72
2023/07/13 01:38:15;;;;;;;5.72;2.28;;;15.10;99.90;;;;;;4972330;28;20651;-72
2023/07/13 01:40:40;;;;;;;11.35;3.00;;;15.20;99.90;;;;;;4971061;28;20657;-74
2023/07/13 01:43:06;;;;;;;11.93;2.70;;;;;;;;;;4972407;28;20723;-73
2023/07/13 01:45:32;;;;;;;6.55;2.67;;;15.10;99.90;;;;;;4971461;28;20262;-73
2023/07/13 01:47:59;;;;;;;8.63;2.88;;;15.10;99.90;;;;;;4972224;28;20226;-72
2023/07/13 01:50:25;;;;;;;10.10;2.70;;;15.10;99.90;;;;;;4972284;28;20188;-75
2023/07/13 01:52:51;;;;;;;8.80;2.38;;;15.20;99.90;;;;;;4972796;28;20631;-73
2023/07/13 01:55:17;;;;;;;8.02;3.10;;;15.20;99.90;;;;;;4973855;28;20669;-75
2023/07/13 01:57:43;;;;;;;8.93;2.38;;;15.20;99.90;;;;;;4973093;28;20207;-75
2023/07/13 02:00:10;;;;;;;13.18;2.40;;;15.20;99.90;;;;;;4972364;28;20617;-74
2023/07/13 02:02:36;;;;;;;9.57;2.90;;;15.10;99.90;;;;;;4972432;28;20204;-73
2023/07/13 02:05:01;;;;;;;7.40;2.70;;;15.10;99.90;;;;;;4972390;28;20206;-74
2023/07/13 02:07:27;;;;;;;11.23;3.50;;;15.20;99.90;;;;;;4971498;28;20659;-74
2023/07/13 02:09:53;;;;;;;5.97;2.35;;;15.20;99.90;;;;;;4970708;28;20182;-82
2023/07/13 02:12:19;;;;;;;10.23;3.05;;;15.10;99.90;;;;;;4974376;28;20172;-83
2023/07/13 02:14:45;;;;;;;9.63;3.15;;;15.10;99.90;;;;;;4974230;28;20266;-85
2023/07/13 02:17:11;;;;;;;7.35;3.40;;;;;;;;;;4973052;28;20211;-85
2023/07/13 02:19:36;;;;;;;9.52;2.97;;;15.10;99.90;;;;;;4973274;28;20172;-83
2023/07/13 02:22:02;;;;;;;8.32;3.38;;;15.00;99.90;;;;;;4972997;28;20178;-83
2023/07/13 02:24:28;;;;;;;9.40;2.67;;;15.00;99.90;;;;;;4973362;28;20528;-84
2023/07/13 02:26:54;;;;;;;11.95;2.97;;;15.00;99.90;;;;;;4973212;28;20662;-84
2023/07/13 02:29:19;;;;;;;7.07;3.33;;;15.00;99.90;;;;;;4973876;28;20177;-84
2023/07/13 02:31:45;;;;;;;10.00;2.92;;;15.00;99.90;;;;;;4978515;28;20172;-83
2023/07/13 02:34:11;;;;;;;17.63;3.33;;;15.00;99.90;;;;;;4972505;28;20554;-82
2023/07/13 02:36:36;;;;;;;12.32;2.83;;;14.90;99.90;;;;;;4973014;28;20208;-82
2023/07/13 02:39:04;;;;;;;6.38;2.60;;;14.90;99.90;;;;;;4972488;28;20279;-83
2023/07/13 02:41:30;;;;;;;7.88;2.70;;;14.90;99.90;;;;;;4972447;28;20713;-81
2023/07/13 02:44:03;;;;;;;6.63;2.50;;;14.90;99.90;;;;;;4972189;28;20279;-81
2023/07/13 02:46:33;;;;;;;4.47;2.30;;;14.90;99.90;;;;;;4974454;28;20190;-80
2023/07/13 02:48:59;;;;;;;11.27;2.60;;;14.90;99.90;;;;;;4975814;28;20168;-81
2023/07/13 02:51:25;;;;;;;8.02;2.58;;;14.60;99.90;;;;;;4975410;28;20534;-81
2023/07/13 02:53:51;;;;;;;7.82;2.10;;;;;;;;;;4975267;28;20319;-75
2023/07/13 02:56:16;;;;;;;14.27;2.78;;;14.80;99.90;;;;;;4974527;28;20252;-70
2023/07/13 02:58:42;;;;;;;7.75;2.53;;;14.90;99.90;;;;;;4975028;28;20714;-81
2023/07/13 03:01:09;;;;;;;6.28;2.03;;;14.90;99.90;;;;;;4973699;28;20191;-79
2023/07/13 03:03:35;;;;;;;7.50;2.25;;;14.90;99.90;;;;;;4974662;28;20562;-80
2023/07/13 03:06:03;;;;;;;8.80;2.60;;;14.90;99.90;;;;;;4974505;28;20187;-79
2023/07/13 03:08:29;;;;;;;4.93;2.40;;;14.90;99.90;;;;;;4974781;28;20270;-79
2023/07/13 03:11:08;;;;;;;13.65;2.20;;;14.90;99.90;;;;;;4974714;28;20648;-76
2023/07/13 03:13:34;;;;;;;7.72;2.58;;;14.80;99.90;;;;;;4973089;28;20183;-76
2023/07/13 03:16:00;;;;;;;7.93;2.20;;;14.60;99.90;;;;;;4974338;28;20223;-75
2023/07/13 03:18:28;;;;;;;5.43;1.98;;;14.80;99.90;;;;;;4974472;28;20701;-77
2023/07/13 03:20:54;;;;;;;8.50;2.35;;;14.70;99.90;;;;;;4974037;28;20251;-77
2023/07/13 03:23:21;;;;;;;7.32;2.20;;;14.70;99.90;;;;;;4974436;28;20279;-75
2023/07/13 03:25:47;;;;;;;8.68;2.25;;;14.80;99.90;;;;;;4974049;28;20254;-75
2023/07/13 03:28:14;;;;;;;8.98;2.28;;;14.70;99.90;;;;;;4974145;28;20587;-74
2023/07/13 03:30:40;;;;;;;10.77;2.67;;;15.10;99.90;;;;;;4973967;28;20196;-74
2023/07/13 03:33:05;;;;;;;6.03;2.40;;;14.70;99.90;;;;;;4972755;28;20250;-73
2023/07/13 03:35:32;;;;;;;6.95;2.60;;;14.70;99.90;;;;;;4973872;28;20214;-74
2023/07/13 03:37:58;;;;;;;12.25;3.13;;;14.70;99.90;;;;;;4974168;28;20184;-74
2023/07/13 03:40:26;;;;;;;8.98;2.15;;;14.70;99.90;;;;;;4974133;28;20176;-73
2023/07/13 03:42:52;;;;;;;9.50;2.25;;;14.80;99.90;;;;;;4974133;28;20716;-73
2023/07/13 03:45:18;;;;;;;12.02;3.00;;;14.70;99.90;;;;;;4973798;28;20219;-74
2023/07/13 03:47:43;;;;;;;11.35;2.50;;;14.70;99.90;;;;;;4973983;28;20172;-73
2023/07/13 03:50:09;;;;;;;8.25;2.35;;;14.70;99.90;;;;;;4973349;28;20309;-73
2023/07/13 03:52:35;;;;;;;12.90;2.65;;;14.70;99.90;;;;;;4972641;28;20657;-72
2023/07/13 03:55:00;;;;;;;13.23;2.40;;;14.70;99.90;;;;;;4973310;28;20226;-73
2023/07/13 03:57:26;;;;;;;8.20;2.90;;;14.70;99.90;;;;;;4973661;28;20184;-72
2023/07/13 03:59:52;;;;;;;7.82;2.65;;;14.60;99.90;;;;;;4973420;28;20186;-71
2023/07/13 04:02:18;;;;;;;15.05;3.10;;;14.60;99.90;;;;;;4972994;28;20215;-71
2023/07/13 04:04:43;;;;;;;8.60;2.58;;;14.70;99.90;;;;;;4960468;28;20183;-71
2023/07/13 04:07:09;;;;;;;13.48;3.10;;;14.70;99.90;;;;;;4973448;28;20266;-71
2023/07/13 04:09:36;;;;;;;17.25;3.28;;;14.70;99.90;;;;;;4973201;28;20223;-73
2023/07/13 04:12:02;;;;;;;7.70;3.05;;;;;;;;;;4973584;28;20180;-72
2023/07/13 04:14:27;;;;;;;10.02;2.70;;;14.70;99.90;;;;;;4973253;28;20538;-72
2023/07/13 04:16:54;;;;;;;7.15;3.08;;;14.70;99.90;;;;;;4973181;28;20215;-72
2023/07/13 04:19:20;;;;;;;10.38;3.40;;;14.70;99.90;;;;;;4973089;28;20685;-72
2023/07/13 04:21:46;;;;;;;9.93;3.10;;;14.80;99.90;;;;;;4971871;28;20204;-74
2023/07/13 04:24:12;;;;;;;10.13;3.30;;;14.80;99.90;;;;;;4973167;28;20204;-74
2023/07/13 04:26:39;;;;;;;10.15;3.53;;;14.80;99.90;;;;;;4985688;28;20646;-75
2023/07/13 04:29:05;;;;;;;9.35;3.08;;;14.90;99.90;;;;;;4992463;28;20179;-74
2023/07/13 04:31:32;;;;;;;6.88;3.30;;;14.80;99.90;;;;;;4992139;28;20234;-74
2023/07/13 04:33:58;;;;;;;7.25;2.90;;;14.80;99.90;;;;;;4990956;28;20213;-73
2023/07/13 04:36:26;;;;;;;10.45;3.22;;;14.90;99.90;;;;;;4991046;28;20574;-73
2023/07/13 04:38:53;;;;;;;11.55;3.63;;;14.90;99.90;;;;;;4992370;28;20176;-73
2023/07/13 04:41:20;;;;;;;13.25;2.83;;;15.00;99.90;;;;;;4992499;28;20646;-81
2023/07/13 04:43:46;;;;;;;10.02;2.88;;;15.00;99.90;;;;;;4992407;28;20259;-81
2023/07/13 04:46:15;;;;;;;7.93;2.67;;;15.10;99.90;;;;;;4992353;28;20266;-81
2023/07/13 04:48:40;;;;;;;10.50;2.80;;;15.00;99.90;;;;;;4992364;28;20183;-80
2023/07/13 04:51:06;;;;;;;6.75;2.70;;;15.00;99.90;;;;;;4992298;28;20225;-80
2023/07/13 04:53:34;;;;;;;12.00;3.03;;;15.10;99.90;;;;;;4992191;28;20654;-79
2023/07/13 04:56:00;;;;;;;8.68;3.03;;;15.10;99.90;;;;;;4982630;28;20243;-79
2023/07/13 04:58:27;;;;;;;6.93;2.92;;;15.20;99.90;;;;;;4972647;28;20180;-80
2023/07/13 05:00:53;;;;;;;10.00;3.33;;;15.20;99.90;;;;;;4972828;28;20646;-80
2023/07/13 05:03:19;;;;;;;7.82;2.88;;;15.20;99.90;;;;;;4972730;28;20620;-79
2023/07/13 05:05:56;;;;;;;10.63;3.20;;;15.30;99.90;;;;;;4972962;28;20180;-79
2023/07/13 05:08:22;;;;;;;13.05;4.30;;;15.30;99.90;;;;;;4972776;28;20176;-79
2023/07/13 05:10:47;;;;;;;8.98;3.58;;;15.30;99.90;;;;;;4972608;28;20540;-79
2023/07/13 05:13:13;;;;;;;7.15;3.10;;;15.40;99.90;;;;;;4972575;28;20179;-79
2023/07/13 05:15:39;;;;;;;13.82;3.40;;;;;;;;;;4971159;28;20282;-78
2023/07/13 05:18:04;;;;;;;9.07;3.00;;;15.40;99.90;;;;;;4972389;28;20164;-79
2023/07/13 05:20:30;;;;;;;9.02;3.05;;;15.40;99.90;;;;;;4972324;28;20172;-79
2023/07/13 05:22:56;;;;;;;10.77;3.20;;;15.50;99.90;;;;;;4972241;28;20315;-79
2023/07/13 05:25:22;;;;;;;6.55;2.92;;;15.60;99.90;;;;;;4972122;28;20179;-78
2023/07/13 05:27:48;;;;;;;8.98;3.08;;;15.60;99.90;;;;;;4972231;28;20259;-77
2023/07/13 05:30:13;;;;;;;10.70;2.60;;;15.50;99.90;;;;;;4972691;28;20207;-76
2023/07/13 05:32:39;;;;;;;7.88;2.58;;;15.40;99.90;;;;;;4972653;28;20246;-76
2023/07/13 05:35:06;;;;;;;6.50;2.30;;;15.50;99.90;;;;;;4972771;28;20756;-79
2023/07/13 05:37:31;;;;;;;5.78;2.00;;;15.50;99.90;;;;;;4972655;28;20175;-78
2023/07/13 05:39:57;;;;;;;10.32;2.53;;;15.50;99.90;;;;;;4972573;28;20536;-77
2023/07/13 05:42:22;;;;;;;8.20;2.30;;;15.30;99.90;;;;;;4972193;28;20234;-69
2023/07/13 05:44:48;;;;;;;6.35;2.35;;;15.50;99.90;;;;;;4971734;28;20219;-72
2023/07/13 05:47:14;;;;;;;6.60;2.00;;;15.50;99.90;;;;;;4971913;28;20674;-72
2023/07/13 05:49:40;;;;;;;5.00;2.08;;;15.50;99.90;;;;;;4971875;28;20222;-72
2023/07/13 05:52:06;;;;;;;7.63;2.35;;;15.60;99.90;;;;;;4971995;28;20182;-72
2023/07/13 05:54:32;;;;;;;6.00;2.20;;;15.60;99.90;;;;;;4971840;28;20172;-72
2023/07/13 05:56:58;;;;;;;5.15;1.50;;;15.60;99.90;;;;;;4971606;28;20749;-70
2023/07/13 05:59:23;;;;;;;10.65;1.83;;;15.60;99.90;;;;;;4955105;28;20169;-71
2023/07/13 06:01:49;;;;;;;6.20;2.10;;;15.60;99.90;;;;;;4952510;28;20513;-72
2023/07/13 06:04:15;;;;;;;3.58;1.63;;;15.60;99.90;;;;;;4952488;28;20331;-71
2023/07/13 06:06:40;;;;;;;4.22;1.70;;;15.70;99.90;;;;;;4952675;28;20252;-72
2023/07/13 06:09:06;;;;;;;2.95;1.55;;;15.70;99.90;;;;;;4953015;28;20208;-71
2023/07/13 06:11:31;;;;;;;3.95;1.52;;;15.80;99.90;;;;;;4971381;28;20677;-71
2023/07/13 06:13:57;;;;;;;5.45;1.45;;;15.70;99.90;;;;;;4971765;28;20182;-72
2023/07/13 06:16:23;;;;;;;7.20;1.73;;;15.80;99.90;;;;;;4971430;28;20211;-73
2023/07/13 06:18:49;;;;;;;4.78;1.77;;;16.00;99.90;;;;;;4971604;28;20164;-72
2023/07/13 06:21:18;;;;;;;5.55;1.60;;;16.00;99.90;;;;;;4973549;28;20176;-74
2023/07/13 06:23:44;;;;;;;6.60;2.03;;;16.10;99.90;;;;;;4975310;28;20175;-71
2023/07/13 06:26:10;;;;;;;5.60;1.90;;;16.10;99.90;;;;;;4975334;28;20168;-71
2023/07/13 06:28:37;;;;;;;9.43;1.95;;;16.10;99.90;;;;;;4975215;28;20214;-71
2023/07/13 06:31:06;;;;;;;7.85;2.30;;;16.20;99.90;;;;;;4975018;28;20180;-76
2023/07/13 06:33:32;;;;;;;6.10;1.80;;;16.20;99.90;;;;;;4974025;28;20293;-72
2023/07/13 06:35:57;;;;;;;4.55;1.48;;;16.40;99.90;;;;;;4974883;28;20682;-72
2023/07/13 06:38:23;;;;;;;8.00;1.90;;;16.40;99.90;;;;;;4975084;28;20180;-72
2023/07/13 06:40:49;;;;;;;5.63;1.75;;;16.30;99.90;;;;;;4975217;28;20260;-71
2023/07/13 06:43:14;;;;;;;8.57;1.50;;;16.30;99.90;;;;;;4975289;28;20263;-71
2023/07/13 06:45:43;;;;;;;8.75;1.83;;;16.40;99.90;;;;;;4974838;28;20762;-74
2023/07/13 06:48:08;;;;;;;6.72;2.08;;;16.50;99.90;;;;;;4975057;28;20533;-71
2023/07/13 06:50:34;;;;;;;6.15;2.10;;;16.60;99.90;;;;;;4974998;28;20172;-72
2023/07/13 06:53:00;;;;;;;8.02;2.38;;;16.40;99.90;;;;;;4974871;28;20180;-73
2023/07/13 06:55:26;;;;;;;6.78;1.65;;;16.40;99.90;;;;;;4974829;28;20172;-74
2023/07/13 06:57:51;;;;;;;5.78;1.70;;;16.30;99.90;;;;;;4973835;28;20278;-72
2023/07/13 07:00:18;;;;;;;7.63;1.80;;;16.30;99.90;;;;;;4973936;28;21072;-70
2023/07/13 07:02:43;;;;;;;6.50;1.90;;;16.40;99.90;;;;;;4974365;28;20183;-70
2023/07/13 07:05:09;;;;;;;5.18;2.08;;;16.30;99.90;;;;;;4974390;28;20222;-69
2023/07/13 07:07:35;;;;;;;5.53;1.40;;;;;;;;;;4974292;28;20176;-69
2023/07/13 07:10:01;;;;;;;7.20;1.60;;;16.40;99.90;;;;;;4974483;28;20531;-69
2023/07/13 07:12:27;;;;;;;6.45;1.60;;;16.40;99.90;;;;;;4968444;28;20184;-69
2023/07/13 07:14:53;;;;;;;5.90;1.50;;;16.40;99.90;;;;;;4956530;28;20651;-69
2023/07/13 07:17:18;;;;;;;7.47;1.67;;;16.40;99.90;;;;;;4962469;28;20617;-69
2023/07/13 07:19:44;;;;;;;3.95;1.30;;;14.50;99.90;;;;;;4974924;28;20183;-70
2023/07/13 07:22:09;;;;;;;3.97;1.50;;;16.20;99.90;;;;;;4973607;28;20516;-71
2023/07/13 07:24:35;;;;;;;3.13;1.60;;;;;;;;;;4973947;28;20203;-69
2023/07/13 07:27:01;;;;;;;3.25;1.42;;;16.10;99.90;;;;;;4974130;28;20373;-69
2023/07/13 07:29:27;;;;;;;3.22;1.50;;;16.20;99.90;;;;;;4973935;28;20659;-70
2023/07/13 07:31:53;;;;;;;5.53;1.55;;;16.20;99.90;;;;;;4973795;28;20183;-69
2023/07/13 07:34:19;;;;;;;3.97;1.25;;;16.30;99.90;;;;;;4974015;28;20176;-79
2023/07/13 07:36:44;;;;;;;6.30;1.75;;;16.30;99.90;;;;;;4972505;28;20221;-75
2023/07/13 07:39:11;;;;;;;6.25;2.03;;;16.30;99.90;;;;;;4973683;28;20188;-77
2023/07/13 07:41:37;;;;;;;4.93;1.65;;;16.30;99.90;;;;;;4973154;28;20231;-78
2023/07/13 07:44:03;;;;;;;4.97;1.48;;;16.20;99.90;;;;;;4974246;28;20160;-77
2023/07/13 07:46:29;;;;;;;3.20;1.40;;;16.10;99.90;;;;;;4974209;28;20192;-80
2023/07/13 07:48:56;;;;;;;10.98;1.65;;;16.10;99.90;;;;;;4960666;28;20543;-70
2023/07/13 07:51:22;;;;;;;3.55;1.42;;;16.10;99.90;;;;;;4954588;28;20259;-71
2023/07/13 07:53:48;;;;;;;3.47;1.48;;;16.00;99.90;;;;;;4954612;28;20632;-67
2023/07/13 07:56:16;;;;;;;6.68;1.55;;;16.00;99.90;;;;;;4960471;28;20212;-68
2023/07/13 07:58:41;;;;;;;6.60;1.98;;;16.00;99.90;;;;;;4973706;28;20195;-72
2023/07/13 08:01:07;;;;;;;4.22;2.05;;;16.00;99.90;;;;;;4973783;28;20643;-85
2023/07/13 08:03:33;;;;;;;5.25;1.77;;;16.00;99.90;;;;;;4973387;28;20328;-69
2023/07/13 08:05:59;;;;;;;3.05;1.60;;;16.10;99.90;;;;;;4972021;28;20176;-70
2023/07/13 08:08:25;;;;;;;4.88;1.80;;;16.00;99.90;;;;;;4973026;28;20230;-70
2023/07/13 08:10:51;;;;;;;8.77;1.80;;;16.00;99.90;;;;;;4973222;28;20176;-68
2023/07/13 08:13:16;;;;;;;3.08;1.30;;;16.10;99.90;;;;;;4973464;28;20176;-69
2023/07/13 08:15:42;;;;;;;3.63;1.38;;;16.10;99.90;;;;;;4973392;28;20223;-69
2023/07/13 08:18:08;;;;;;;3.95;1.63;;;16.00;99.90;;;;;;4972178;28;20690;-68
2023/07/13 08:20:39;;;;;;;6.70;1.70;;;16.10;99.90;;;;;;4973370;28;20182;-69
2023/07/13 08:23:05;;;;;;;6.28;1.63;;;16.10;99.90;;;;;;4973031;28;20642;-69
2023/07/13 08:25:31;;;;;;;7.07;1.80;;;16.20;99.90;;;;;;4971647;28;20647;-69
2023/07/13 08:27:56;;;;;;;4.18;1.98;;;16.20;99.90;;;;;;4971872;28;20250;-69
2023/07/13 08:30:23;;;;;;;7.05;2.03;;;16.30;99.90;;;;;;4971307;28;20263;-69
2023/07/13 08:32:49;;;;;;;3.70;1.55;;;16.30;99.90;;;;;;4971322;28;20659;-67
2023/07/13 08:35:15;;;;;;;4.72;1.77;;;16.40;99.90;;;;;;4971041;28;20551;-69
2023/07/13 08:37:41;;;;;;;5.50;1.90;;;16.50;99.90;;;;;;4970920;28;20223;-69
2023/07/13 08:40:10;;;;;;;3.53;1.33;;;16.60;99.90;;;;;;4971581;28;20201;-69
2023/07/13 08:42:44;;;;;;;4.93;1.70;;;17.40;99.90;;;;;;4971082;28;20656;-67
2023/07/13 08:45:31;;;;;;;4.25;1.90;;;17.10;99.90;;;;;;4972165;28;20678;-68
2023/07/13 08:48:11;;;;;;;3.20;1.58;;;17.30;99.90;;;;;;4973236;28;20223;-69
2023/07/13 08:51:02;;;;;;;3.70;1.80;;;17.30;99.90;;;;;;4971833;28;20176;-69
2023/07/13 08:53:38;;;;;;;4.45;1.70;;;17.50;99.90;;;;;;4971627;28;20188;-69
2023/07/13 08:56:09;;;;;;;3.95;1.75;;;17.30;99.90;;;;;;4972505;28;20250;-68
2023/07/13 08:58:36;;;;;;;5.53;2.10;;;17.30;99.90;;;;;;4961903;28;20164;-69
2023/07/13 09:01:40;;;;;;;4.18;1.10;;;17.40;99.90;;;;;;4952989;28;20183;-68
2023/07/13 09:04:15;;;;;;;3.20;1.10;;;17.10;99.90;;;;;;4958942;28;20267;-68
2023/07/13 09:06:53;;;;;;;3.97;1.42;;;17.20;99.90;;;;;;4953128;28;20184;-68
2023/07/13 09:09:25;;;;;;;5.35;1.20;;;17.20;99.90;;;;;;4953180;28;20172;-69
2023/07/13 09:12:01;;;;;;;3.22;1.30;;;17.20;99.90;;;;;;4953124;28;20208;-69
2023/07/13 09:14:42;;;;;;;3.78;1.10;;;17.00;99.90;;;;;;4952791;28;20429;-68
2023/07/13 09:17:48;;;;;;;5.43;0.90;;;17.00;99.90;;;;;;4952669;28;20219;-69
2023/07/13 09:20:39;;;;;;;1.55;0.93;;;16.80;99.90;;;;;;4961323;28;20266;-68
2023/07/13 09:23:07;;;;;;;2.42;0.90;;;16.70;99.90;;;;;;4952750;28;20203;-69
2023/07/13 09:25:35;;;;;;;3.65;0.77;;;16.80;99.90;;;;;;4967644;28;20199;-67
2023/07/13 09:28:36;;;;;;;3.88;1.10;;;16.80;99.90;;;;;;4952847;28;20649;-67
2023/07/13 09:31:12;;;;;;;4.50;1.13;;;16.90;99.90;;;;;;4951625;28;20188;-68
2023/07/13 09:33:38;;;;;;;3.55;0.93;;;16.70;99.90;;;;;;4953102;28;20312;-68
2023/07/13 09:36:24;;;;;;;2.72;0.90;;;16.60;99.90;;;;;;4952690;28;20278;-67
2023/07/13 09:39:02;;;;;;;5.43;0.93;;;16.70;99.90;;;;;;4952719;28;20184;-68
2023/07/13 09:42:02;;;;;;;2.35;0.82;;;16.80;99.90;;;;;;4952674;28;20584;-68
2023/07/13 09:44:35;;;;;;;2.25;0.80;;;16.90;99.90;;;;;;4952693;28;20259;-67
2023/07/13 09:47:02;;;;;;;2.42;0.93;;;17.10;99.90;;;;;;4952510;28;20259;-67
2023/07/13 09:49:29;;;;;;;8.23;1.13;;;17.30;99.90;;;;;;4952631;28;20264;-69
2023/07/13 09:52:12;;;;;;;2.67;1.00;;;17.30;99.90;;;;;;4952558;28;20263;-68
2023/07/13 09:54:37;;;;;;;3.40;1.17;;;17.30;99.90;;;;;;4953699;28;20643;-68
2023/07/13 09:57:12;;;;;;;2.13;0.93;;;17.50;99.90;;;;;;4956400;28;20281;-68
2023/07/13 09:59:42;;;;;;;3.22;1.00;;;17.40;99.90;;;;;;4975146;28;20261;-69
2023/07/13 10:02:35;;;;;;;2.85;1.10;;;17.60;99.90;;;;;;4975724;28;20202;-69
2023/07/13 10:05:15;;;;;;;1.92;0.80;;;18.00;99.90;;;;;;4975680;28;20541;-69
2023/07/13 10:07:44;;;;;;;4.00;1.23;;;18.20;99.90;;;;;;4976564;28;20190;-69
2023/07/13 10:10:16;;;;;;;3.45;1.02;;;18.40;99.90;;;;;;4975696;28;20179;-69
2023/07/13 10:12:41;;;;;;;3.00;0.95;;;18.60;99.90;;;;;;4975721;28;20192;-70
2023/07/13 10:15:14;;;;;;;3.53;1.20;;;18.50;99.90;;;;;;4975437;28;20197;-69
2023/07/13 10:17:41;;;;;;;4.38;1.67;;;18.40;99.90;;;;;;4974161;28;20266;-69
2023/07/13 10:20:12;;;;;;;2.90;1.13;;;18.50;99.90;;;;;;4975291;28;20172;-70
2023/07/13 10:23:06;;;;;;;5.63;1.20;;;19.10;99.90;;;;;;4975407;28;20184;-69
2023/07/13 10:25:34;;;;;;;4.47;1.00;;;18.30;99.90;;;;;;4975123;28;20186;-69
2023/07/13 10:28:21;;;;;;;2.78;0.80;;;19.60;99.90;;;;;;4975512;28;20180;-70
2023/07/13 10:30:48;;;;;;;5.97;1.25;;;19.30;99.90;;;;;;4975217;28;20184;-70
2023/07/13 10:33:14;;;;;;;3.95;0.60;;;19.60;99.90;;;;;;4975237;28;20195;-69
2023/07/13 10:35:43;;;;;;;4.13;1.05;;;19.70;99.90;;;;;;4975127;28;20227;-68
2023/07/13 10:38:16;;;;;;;5.35;1.00;;;20.00;99.90;;;;;;4975303;28;20199;-69
2023/07/13 10:40:50;;;;;;;4.30;1.20;;;20.10;99.90;;;;;;4975134;28;20666;-70
2023/07/13 10:43:23;;;;;;;3.17;1.00;;;20.20;99.90;;;;;;4975158;28;20172;-70
2023/07/13 10:45:51;;;;;;;3.63;1.15;;;20.30;99.90;;;;;;4973434;28;20228;-69
2023/07/13 10:48:18;;;;;;;3.47;0.90;;;19.90;99.90;;;;;;4974919;28;20168;-69
2023/07/13 10:50:47;;;;;;;2.33;0.85;;;19.90;99.90;;;;;;4975419;28;20180;-70
2023/07/13 10:53:21;;;;;;;3.17;1.00;;;19.90;99.90;;;;;;4975194;28;20635;-70
2023/07/13 10:55:52;;;;;;;2.03;1.10;;;20.00;99.90;;;;;;4974922;28;20219;-69
2023/07/13 10:58:28;;;;;;;6.40;1.40;;;20.00;99.90;;;;;;4966725;28;20667;-70
2023/07/13 11:01:06;;;;;;;7.28;0.88;;;20.10;99.90;;;;;;4955379;28;20190;-68
2023/07/13 11:03:38;;;;;;;2.10;0.90;;;19.90;99.90;;;;;;4955432;28;20180;-69
2023/07/13 11:06:09;;;;;;;3.20;0.90;;;19.80;99.90;;;;;;4954737;28;20188;-68
2023/07/13 11:08:47;;;;;;;2.72;0.80;;;20.10;99.90;;;;;;4955238;28;20204;-68
2023/07/13 11:11:34;;;;;;;1.85;0.98;;;19.90;99.90;;;;;;4955068;28;20180;-69
2023/07/13 11:14:04;;;;;;;1.23;0.88;;;20.00;99.90;;;;;;4955286;28;20187;-69
2023/07/13 11:16:46;;;;;;;5.43;0.90;;;20.30;99.90;;;;;;4955045;28;20216;-69
2023/07/13 11:19:17;;;;;;;2.67;0.80;;;20.70;99.90;;;;;;4955025;28;20195;-69
2023/07/13 11:22:07;;;;;;;3.13;0.80;;;21.00;99.90;;;;;;4955027;28;20225;-68
2023/07/13 11:25:02;;;;;;;8.07;1.40;;;21.70;99.90;;;;;;4954899;28;20712;-69
2023/07/13 11:27:38;;;;;;;2.00;0.63;;;21.90;99.90;;;;;;4968284;28;20188;-69
2023/07/13 11:30:22;;;;;;;2.78;0.98;;;21.00;99.90;;;;;;4974107;28;20808;-69
2023/07/13 11:33:12;;;;;;;3.08;1.20;;;20.80;99.90;;;;;;4974311;28;20176;-69
2023/07/13 11:35:52;;;;;;;1.52;0.80;;;20.80;99.90;;;;;;4976453;28;20218;-70
2023/07/13 11:38:27;;;;;;;5.55;1.00;;;20.50;99.90;;;;;;4974021;28;20172;-70
2023/07/13 11:40:54;;;;;;;3.17;1.30;;;20.70;99.90;;;;;;4974174;28;20175;-69
2023/07/13 11:43:23;;;;;;;3.08;1.20;;;20.90;99.90;;;;;;4974152;28;20195;-69
2023/07/13 11:45:49;;;;;;;3.25;1.08;;;21.10;99.90;;;;;;4973802;28;20310;-69
2023/07/13 11:48:23;;;;;;;5.10;1.10;;;21.20;99.90;;;;;;4973952;28;20171;-69
2023/07/13 11:51:11;;;;;;;1.67;0.80;;;21.40;99.90;;;;;;4974004;28;20187;-68
2023/07/13 11:53:44;;;;;;;2.33;0.80;;;21.40;99.90;;;;;;4973760;28;20275;-69
2023/07/13 11:56:10;;;;;;;4.32;0.90;;;21.40;99.90;;;;;;4973628;28;20260;-70
2023/07/13 11:58:36;;;;;;;4.30;1.05;;;21.90;99.90;;;;;;4973141;28;20643;-69
2023/07/13 12:01:05;;;;;;;2.97;1.20;;;21.60;99.90;;;;;;4972107;28;20183;-69
2023/07/13 12:03:33;;;;;;;4.13;1.10;;;21.70;99.90;;;;;;4973605;28;20187;-69
2023/07/13 12:06:07;;;;;;;3.08;1.08;;;21.50;99.90;;;;;;4973615;28;20183;-69
2023/07/13 12:08:40;;;;;;;2.13;0.82;;;20.90;99.90;;;;;;4972876;28;20234;-69
2023/07/13 12:11:15;;;;;;;2.92;0.93;;;21.20;99.90;;;;;;4972825;28;20228;-68
2023/07/13 12:13:40;;;;;;;4.22;1.13;;;21.20;99.90;;;;;;4972987;28;20167;-68
2023/07/13 12:16:23;;;;;;;2.65;1.02;;;21.20;99.90;;;;;;4973307;28;20208;-68
2023/07/13 12:18:53;;;;;;;3.83;1.10;;;22.30;99.90;;;;;;4972172;28;20179;-68
2023/07/13 12:21:21;;;;;;;3.92;1.20;;;22.70;99.90;;;;;;4973293;28;20539;-68
2023/07/13 12:23:49;;;;;;;3.60;1.00;;;22.70;1.00;;;;;;4973364;28;20180;-68
2023/07/13 12:26:17;;;;;;;4.30;1.02;;;23.30;1.00;;;;;;4971777;28;20205;-72
2023/07/13 12:28:56;;;;;;;1.90;0.90;;;23.10;1.00;;;;;;4972349;28;20176;-74
2023/07/13 12:31:42;;;;;;;5.80;1.02;;;23.00;18.90;;;;;;4972487;28;20211;-74
2023/07/13 12:34:16;;;;;;;6.50;1.73;;;23.50;1.00;;;;;;4973151;28;20212;-73
2023/07/13 12:36:55;;;;;;;4.25;1.08;;;23.10;1.00;;;;;;4970949;28;20305;-73
2023/07/13 12:39:44;;;;;;;3.13;1.35;;;23.20;1.00;;;;;;4971056;28;20686;-73
2023/07/13 12:42:32;;;;;;;4.07;1.42;;;23.50;1.00;;;;;;4971081;28;20694;-72
2023/07/13 12:45:04;;;;;;;6.07;1.08;;;23.40;1.00;;;;;;4971434;28;20228;-64
2023/07/13 12:47:30;;;;;;;5.80;1.30;;;23.30;99.90;;;;;;4954182;28;20219;-72
2023/07/13 12:49:59;;;;;;;2.88;0.93;;;22.60;1.00;;;;;;4970729;28;20180;-62
2023/07/13 12:52:33;;;;;;;3.13;0.95;;;22.00;1.00;;;;;;4973006;28;20178;-64
2023/07/13 12:55:14;;;;;;;2.83;0.80;;;21.70;1.00;;;;;;4967748;28;20198;-63
2023/07/13 12:57:57;;;;;;;6.47;1.33;;;21.90;1.00;;;;;;4962799;28;20306;-64
2023/07/13 13:00:38;;;;;;;4.97;1.50;;;22.30;99.90;;;;;;4970589;28;20256;-63